Time;durP1;ratioP1;P1;durP2;ratioP2;P2;SDS_P1;SDS_P2;PMS_P1;PMS_P2;Temp;Humidity;BMP_temperature;BMP_pressure;BME280_temperature;BME280_humidity;BME280_pressure;Samples;Min_cycle;Max_cycle;Signal;HPM_P1;HPM_P2
2024/01/12 00:00:35;;;;;;;34.33;18.58;;;0.90;99.90;;;;;;5051287;28;20197;-51
2024/01/12 00:03:02;;;;;;;28.13;17.45;;;0.80;99.90;;;;;;5051628;28;20209;-51
2024/01/12 00:05:28;;;;;;;32.25;18.10;;;0.90;99.90;;;;;;5051817;28;20257;-51
2024/01/12 00:07:53;;;;;;;34.13;16.88;;;0.90;99.90;;;;;;5051096;28;20245;-51
2024/01/12 00:10:19;;;;;;;33.10;18.50;;;0.90;99.90;;;;;;5050542;28;20163;-51
2024/01/12 00:12:45;;;;;;;34.20;17.90;;;0.80;99.90;;;;;;5051299;28;20167;-51
2024/01/12 00:15:10;;;;;;;32.58;18.05;;;0.80;99.90;;;;;;5051077;28;20170;-51
2024/01/12 00:17:36;;;;;;;33.45;17.92;;;0.90;99.90;;;;;;5050895;28;20198;-51
2024/01/12 00:20:04;;;;;;;34.03;19.45;;;0.90;99.90;;;;;;5051526;28;20631;-52
2024/01/12 00:22:30;;;;;;;32.53;18.38;;;0.90;99.90;;;;;;5051450;28;20653;-51
2024/01/12 00:24:55;;;;;;;31.67;17.17;;;0.90;99.90;;;;;;5050912;28;20201;-51
2024/01/12 00:27:21;;;;;;;35.13;17.42;;;0.80;99.90;;;;;;5051190;28;20217;-51
2024/01/12 00:29:46;;;;;;;32.65;18.08;;;0.80;99.90;;;;;;5051199;28;20642;-51
2024/01/12 00:32:12;;;;;;;36.13;18.48;;;0.80;99.90;;;;;;5051171;28;20181;-51
2024/01/12 00:34:38;;;;;;;32.80;17.65;;;0.90;99.90;;;;;;5051137;28;20260;-52
2024/01/12 00:37:03;;;;;;;34.92;18.13;;;0.80;99.90;;;;;;5050823;28;20195;-51
2024/01/12 00:39:29;;;;;;;36.75;18.02;;;0.80;99.90;;;;;;5051631;28;20185;-51
2024/01/12 00:41:54;;;;;;;31.92;16.75;;;0.70;99.90;;;;;;5050899;28;20170;-51
2024/01/12 00:44:21;;;;;;;31.63;17.63;;;0.60;99.90;;;;;;5050734;28;20179;-52
2024/01/12 00:46:50;;;;;;;34.30;19.42;;;0.70;99.90;;;;;;5050794;28;20689;-52
2024/01/12 00:49:17;;;;;;;36.05;17.67;;;0.80;99.90;;;;;;5050669;28;20646;-51
2024/01/12 00:51:43;;;;;;;33.90;18.10;;;0.70;99.90;;;;;;5051003;28;20279;-52
2024/01/12 00:54:09;;;;;;;33.58;17.58;;;0.70;99.90;;;;;;5050723;28;20167;-52
2024/01/12 00:56:34;;;;;;;33.22;18.08;;;0.80;99.90;;;;;;5050335;28;20280;-52
2024/01/12 00:59:00;;;;;;;40.08;17.85;;;0.90;99.90;;;;;;5050999;28;20193;-51
2024/01/12 01:01:26;;;;;;;39.85;19.58;;;0.90;99.90;;;;;;5050768;28;20171;-51
2024/01/12 01:03:51;;;;;;;37.63;18.50;;;0.90;99.90;;;;;;5050438;28;20167;-52
2024/01/12 01:06:17;;;;;;;40.25;19.67;;;0.90;99.90;;;;;;5050055;28;20177;-52
2024/01/12 01:08:42;;;;;;;36.85;19.60;;;0.90;99.90;;;;;;5050481;28;20652;-51
2024/01/12 01:11:08;;;;;;;42.53;20.42;;;1.00;99.90;;;;;;5050426;28;20589;-52
2024/01/12 01:13:36;;;;;;;45.60;19.83;;;1.10;99.90;;;;;;5050551;28;20174;-52
2024/01/12 01:16:02;;;;;;;30.08;17.63;;;1.00;99.90;;;;;;5051022;28;20171;-51
2024/01/12 01:18:30;;;;;;;34.90;17.85;;;1.00;99.90;;;;;;5050903;28;20247;-51
2024/01/12 01:20:57;;;;;;;31.95;18.00;;;0.90;99.90;;;;;;5051113;28;20650;-51
2024/01/12 01:23:22;;;;;;;32.83;17.85;;;0.90;99.90;;;;;;5054320;28;20232;-51
2024/01/12 01:25:48;;;;;;;33.95;18.90;;;0.90;99.90;;;;;;5053961;28;20163;-51
2024/01/12 01:28:14;;;;;;;37.72;19.17;;;1.00;99.90;;;;;;5053963;28;20158;-52
2024/01/12 01:30:40;;;;;;;40.15;19.27;;;1.00;99.90;;;;;;5054130;28;20178;-52
2024/01/12 01:33:05;;;;;;;33.42;17.25;;;1.00;99.90;;;;;;5053946;28;20712;-52
2024/01/12 01:35:31;;;;;;;40.60;18.20;;;1.00;99.90;;;;;;5054375;28;20630;-51
2024/01/12 01:37:56;;;;;;;36.10;18.55;;;1.00;99.90;;;;;;5053751;28;20240;-51
2024/01/12 01:40:22;;;;;;;35.92;20.23;;;1.10;99.90;;;;;;5053717;28;20263;-50
2024/01/12 01:42:48;;;;;;;35.35;18.83;;;1.10;99.90;;;;;;5052440;28;20233;-51
2024/01/12 01:45:15;;;;;;;34.03;19.40;;;1.00;99.90;;;;;;5053670;28;20655;-51
2024/01/12 01:47:41;;;;;;;39.03;19.58;;;1.00;99.90;;;;;;5053653;28;20174;-51
2024/01/12 01:50:08;;;;;;;38.08;19.20;;;1.00;99.90;;;;;;5053521;28;20163;-51
2024/01/12 01:52:33;;;;;;;37.10;19.50;;;1.00;99.90;;;;;;5053384;28;20167;-51
2024/01/12 01:54:59;;;;;;;37.35;19.65;;;0.90;99.90;;;;;;5053907;28;20692;-51
2024/01/12 01:57:26;;;;;;;37.60;19.73;;;0.90;99.90;;;;;;5053407;28;20669;-50
2024/01/12 01:59:52;;;;;;;35.92;20.15;;;1.00;99.90;;;;;;5053382;28;20162;-51
2024/01/12 02:02:18;;;;;;;47.63;19.60;;;1.00;99.90;;;;;;5053368;28;20638;-51
2024/01/12 02:04:44;;;;;;;37.70;20.13;;;1.00;99.90;;;;;;5053307;28;20171;-51
2024/01/12 02:07:09;;;;;;;35.90;20.38;;;1.00;99.90;;;;;;5053499;28;20182;-51
2024/01/12 02:09:35;;;;;;;33.15;20.05;;;1.10;99.90;;;;;;5053255;28;20166;-51
2024/01/12 02:12:04;;;;;;;42.80;21.25;;;1.00;99.90;;;;;;5053743;28;20178;-51
2024/01/12 02:14:30;;;;;;;43.58;22.52;;;1.10;99.90;;;;;;5053792;28;20224;-51
2024/01/12 02:16:56;;;;;;;37.45;20.80;;;1.10;99.90;;;;;;5052926;28;20293;-51
2024/01/12 02:19:21;;;;;;;46.05;21.67;;;1.10;99.90;;;;;;5053009;28;20205;-51
2024/01/12 02:21:47;;;;;;;36.38;19.30;;;1.10;99.90;;;;;;5053011;28;20534;-52
2024/01/12 02:24:12;;;;;;;37.97;21.13;;;1.10;99.90;;;;;;5053108;28;20263;-50
2024/01/12 02:26:38;;;;;;;35.13;20.98;;;1.10;99.90;;;;;;5052866;28;20635;-51
2024/01/12 02:29:04;;;;;;;36.38;21.70;;;1.10;99.90;;;;;;5053102;28;20621;-50
2024/01/12 02:31:30;;;;;;;43.80;21.75;;;1.10;99.90;;;;;;5053062;28;20159;-51
2024/01/12 02:33:55;;;;;;;40.20;21.30;;;1.10;99.90;;;;;;5053011;28;20220;-51
2024/01/12 02:36:24;;;;;;;48.05;23.80;;;1.00;99.90;;;;;;5052557;28;20174;-52
2024/01/12 02:38:50;;;;;;;47.22;23.80;;;1.00;99.90;;;;;;5052926;28;20516;-53
2024/01/12 02:41:16;;;;;;;41.45;23.33;;;1.10;99.90;;;;;;5052634;28;20177;-52
2024/01/12 02:43:41;;;;;;;42.22;23.38;;;1.10;99.90;;;;;;5052502;28;20179;-52
2024/01/12 02:46:07;;;;;;;46.30;24.85;;;1.10;99.90;;;;;;5052508;28;20167;-52
2024/01/12 02:48:32;;;;;;;45.50;23.65;;;1.10;99.90;;;;;;5052408;28;20166;-52
2024/01/12 02:50:58;;;;;;;46.45;25.25;;;1.10;99.90;;;;;;5053039;28;20182;-52
2024/01/12 02:53:24;;;;;;;56.58;26.95;;;1.00;99.90;;;;;;5052245;28;20170;-53
2024/01/12 02:55:49;;;;;;;59.72;27.05;;;1.10;99.90;;;;;;5050899;28;20317;-52
2024/01/12 02:58:15;;;;;;;56.75;28.63;;;1.10;99.90;;;;;;5052124;28;20246;-53
2024/01/12 03:00:40;;;;;;;55.90;28.13;;;1.10;99.90;;;;;;5052261;28;20224;-53
2024/01/12 03:03:06;;;;;;;57.38;28.92;;;1.10;99.90;;;;;;5052132;28;20171;-52
2024/01/12 03:05:32;;;;;;;63.78;29.55;;;1.10;99.90;;;;;;5052834;28;20167;-52
2024/01/12 03:07:57;;;;;;;66.70;30.10;;;1.10;99.90;;;;;;5052883;28;20178;-51
2024/01/12 03:10:23;;;;;;;58.05;27.95;;;1.00;99.90;;;;;;5052031;28;20170;-52
2024/01/12 03:12:48;;;;;;;66.97;30.23;;;1.00;99.90;;;;;;5052262;28;20618;-52
2024/01/12 03:15:14;;;;;;;70.30;30.42;;;1.00;99.90;;;;;;5050613;28;20217;-52
2024/01/12 03:17:40;;;;;;;63.97;30.38;;;1.00;99.90;;;;;;5052090;28;20206;-52
2024/01/12 03:20:07;;;;;;;65.10;30.42;;;1.10;99.90;;;;;;5052110;28;20171;-52
2024/01/12 03:22:32;;;;;;;60.50;28.63;;;1.10;99.90;;;;;;5051951;28;20554;-52
2024/01/12 03:24:58;;;;;;;74.85;30.63;;;1.00;99.90;;;;;;5052250;28;20178;-52
2024/01/12 03:27:23;;;;;;;81.53;31.67;;;1.00;99.90;;;;;;5051667;28;20163;-52
2024/01/12 03:29:49;;;;;;;76.05;30.55;;;1.00;99.90;;;;;;5051727;28;20171;-51
2024/01/12 03:32:15;;;;;;;69.90;31.25;;;1.10;99.90;;;;;;5051908;28;20169;-51
2024/01/12 03:34:40;;;;;;;78.43;33.53;;;1.00;99.90;;;;;;5051580;28;20257;-52
2024/01/12 03:37:06;;;;;;;75.75;31.30;;;1.10;99.90;;;;;;5051326;28;20206;-51
2024/01/12 03:39:32;;;;;;;81.65;32.97;;;1.10;99.90;;;;;;5051837;28;20185;-51
2024/01/12 03:41:57;;;;;;;72.75;33.42;;;0.30;99.90;;;;;;5051766;28;20688;-51
2024/01/12 03:44:23;;;;;;;81.22;32.78;;;1.00;99.90;;;;;;5050602;28;20734;-51
2024/01/12 03:46:48;;;;;;;66.75;30.45;;;1.10;99.90;;;;;;5051278;28;20182;-51
2024/01/12 03:49:14;;;;;;;71.45;31.67;;;1.20;99.90;;;;;;5051170;28;20170;-51
2024/01/12 03:51:43;;;;;;;80.10;31.13;;;1.10;99.90;;;;;;5051565;28;20224;-52
2024/01/12 03:54:09;;;;;;;68.10;30.77;;;1.10;99.90;;;;;;5051532;28;20185;-51
2024/01/12 03:56:34;;;;;;;74.82;30.08;;;1.10;99.90;;;;;;5051023;28;20214;-52
2024/01/12 03:59:00;;;;;;;74.20;31.85;;;1.10;99.90;;;;;;5051972;28;20182;-52
2024/01/12 04:01:25;;;;;;;68.22;29.33;;;1.10;99.90;;;;;;5051171;28;20171;-52
2024/01/12 04:03:51;;;;;;;74.00;30.13;;;1.10;99.90;;;;;;5051204;28;20182;-51
2024/01/12 04:06:18;;;;;;;78.28;31.50;;;1.10;99.90;;;;;;5051198;28;20210;-52
2024/01/12 04:08:43;;;;;;;69.53;32.25;;;1.10;99.90;;;;;;5051154;28;20693;-52
2024/01/12 04:11:09;;;;;;;68.28;29.20;;;1.20;99.90;;;;;;5051097;28;20209;-51
2024/01/12 04:13:34;;;;;;;68.40;30.70;;;1.20;99.90;;;;;;5051296;28;20193;-51
2024/01/12 04:16:00;;;;;;;80.45;31.88;;;1.20;99.90;;;;;;5051563;28;20178;-53
2024/01/12 04:18:25;;;;;;;83.45;31.85;;;1.20;99.90;;;;;;5050897;28;20692;-52
2024/01/12 04:20:51;;;;;;;83.82;32.47;;;1.20;99.90;;;;;;5050970;28;20634;-52
2024/01/12 04:23:16;;;;;;;64.45;29.95;;;1.30;99.90;;;;;;5050982;28;20173;-51
2024/01/12 04:25:42;;;;;;;69.05;30.60;;;1.20;99.90;;;;;;5051242;28;20618;-52
2024/01/12 04:28:07;;;;;;;67.80;30.40;;;1.20;99.90;;;;;;5050923;28;20167;-51
2024/01/12 04:30:33;;;;;;;70.78;31.90;;;1.20;99.90;;;;;;5050863;28;20177;-50
2024/01/12 04:32:58;;;;;;;77.63;32.13;;;1.30;99.90;;;;;;5051384;28;20520;-51
2024/01/12 04:35:24;;;;;;;66.15;31.15;;;1.30;99.90;;;;;;5050847;28;20175;-51
2024/01/12 04:37:50;;;;;;;63.95;29.70;;;1.30;99.90;;;;;;5050762;28;20253;-51
2024/01/12 04:40:15;;;;;;;82.40;31.33;;;1.30;99.90;;;;;;5050643;28;20217;-52
2024/01/12 04:42:41;;;;;;;70.82;29.48;;;1.30;99.90;;;;;;5050716;28;20245;-52
2024/01/12 04:45:06;;;;;;;89.22;32.45;;;1.30;99.90;;;;;;5050663;28;20178;-52
2024/01/12 04:47:32;;;;;;;76.85;30.60;;;1.40;99.90;;;;;;5050725;28;20163;-52
2024/01/12 04:49:58;;;;;;;65.68;30.73;;;1.40;99.90;;;;;;5051221;28;20198;-51
2024/01/12 04:52:23;;;;;;;68.75;31.63;;;1.40;99.90;;;;;;5050656;28;20173;-51
2024/01/12 04:54:49;;;;;;;68.82;29.92;;;1.50;99.90;;;;;;5051402;28;20166;-53
2024/01/12 04:57:14;;;;;;;74.53;31.00;;;1.40;99.90;;;;;;5054372;28;20218;-51
2024/01/12 04:59:40;;;;;;;74.45;31.67;;;1.40;99.90;;;;;;5054388;28;20249;-51
2024/01/12 05:02:07;;;;;;;80.43;32.10;;;1.40;99.90;;;;;;5054482;28;20182;-52
2024/01/12 05:04:32;;;;;;;75.60;33.10;;;1.40;99.90;;;;;;5054297;28;20174;-52
2024/01/12 05:06:58;;;;;;;74.28;32.70;;;1.40;99.90;;;;;;5054919;28;20171;-52
2024/01/12 05:09:24;;;;;;;66.05;31.55;;;1.30;99.90;;;;;;5053030;28;20190;-52
2024/01/12 05:11:49;;;;;;;71.75;32.15;;;1.30;99.90;;;;;;5054443;28;20194;-53
2024/01/12 05:14:15;;;;;;;86.47;34.00;;;1.30;99.90;;;;;;5054186;28;20166;-52
2024/01/12 05:16:41;;;;;;;74.63;32.55;;;1.30;99.90;;;;;;5054121;28;20265;-52
2024/01/12 05:19:07;;;;;;;80.68;31.88;;;1.30;99.90;;;;;;5054430;28;20166;-52
2024/01/12 05:21:32;;;;;;;77.22;32.30;;;1.30;99.90;;;;;;5054118;28;20216;-52
2024/01/12 05:23:58;;;;;;;81.00;32.80;;;1.40;99.90;;;;;;5054519;28;20174;-52
2024/01/12 05:26:23;;;;;;;71.68;31.60;;;1.30;99.90;;;;;;5053738;28;20261;-52
2024/01/12 05:28:49;;;;;;;73.72;30.70;;;1.40;99.90;;;;;;5053955;28;20251;-52
2024/01/12 05:31:15;;;;;;;81.65;32.22;;;1.40;99.90;;;;;;5053967;28;20518;-52
2024/01/12 05:33:40;;;;;;;79.43;30.88;;;1.40;99.90;;;;;;5053658;28;20206;-53
2024/01/12 05:36:06;;;;;;;75.20;30.35;;;1.40;99.90;;;;;;5053756;28;20181;-52
2024/01/12 05:38:32;;;;;;;79.63;29.98;;;1.30;99.90;;;;;;5054102;28;20205;-51
2024/01/12 05:40:57;;;;;;;78.75;29.58;;;1.30;99.90;;;;;;5053848;28;20691;-52
2024/01/12 05:43:23;;;;;;;80.88;32.55;;;1.30;99.90;;;;;;5053729;28;20634;-52
2024/01/12 05:45:48;;;;;;;102.70;32.53;;;1.30;99.90;;;;;;5053748;28;20162;-53
2024/01/12 05:48:14;;;;;;;93.55;31.48;;;1.30;99.90;;;;;;5053477;28;20552;-53
2024/01/12 05:50:39;;;;;;;90.05;32.65;;;1.30;99.90;;;;;;5053547;28;20209;-52
2024/01/12 05:53:06;;;;;;;99.93;32.30;;;1.40;99.90;;;;;;5053436;28;20178;-53
2024/01/12 05:55:32;;;;;;;89.55;32.20;;;1.40;99.90;;;;;;5052976;28;20229;-53
2024/01/12 05:57:57;;;;;;;100.18;32.97;;;1.40;99.90;;;;;;5053668;28;20285;-53
2024/01/12 06:00:23;;;;;;;92.25;31.98;;;1.30;99.90;;;;;;5053302;28;20167;-52
2024/01/12 06:02:48;;;;;;;92.57;32.38;;;1.40;99.90;;;;;;5053384;28;20674;-52
2024/01/12 06:05:14;;;;;;;85.95;32.05;;;1.40;99.90;;;;;;5053226;28;20163;-51
2024/01/12 06:07:39;;;;;;;94.93;34.30;;;1.50;99.90;;;;;;5052518;28;20167;-52
2024/01/12 06:10:07;;;;;;;97.80;33.17;;;1.50;99.90;;;;;;5053179;28;20538;-52
2024/01/12 06:12:33;;;;;;;86.90;32.80;;;1.50;99.90;;;;;;5053420;28;20179;-51
2024/01/12 06:14:59;;;;;;;87.72;32.50;;;1.50;99.90;;;;;;5053885;28;20175;-51
2024/01/12 06:17:25;;;;;;;84.53;31.80;;;1.50;99.90;;;;;;5053091;28;20210;-51
2024/01/12 06:19:51;;;;;;;93.25;34.47;;;1.50;99.90;;;;;;5052959;28;20177;-52
2024/01/12 06:22:16;;;;;;;91.25;34.22;;;1.40;99.90;;;;;;5052831;28;20236;-52
2024/01/12 06:24:42;;;;;;;97.40;35.20;;;1.50;99.90;;;;;;5052839;28;20225;-52
2024/01/12 06:27:07;;;;;;;95.43;35.35;;;1.50;99.90;;;;;;5052750;28;20538;-52
2024/01/12 06:29:34;;;;;;;84.78;32.50;;;1.50;99.90;;;;;;5052671;28;20561;-52
2024/01/12 06:32:00;;;;;;;96.22;34.90;;;1.50;99.90;;;;;;5053454;28;20228;-52
2024/01/12 06:34:26;;;;;;;88.28;34.30;;;1.60;99.90;;;;;;5052724;28;20269;-52
2024/01/12 06:36:51;;;;;;;91.78;36.38;;;1.60;99.90;;;;;;5051299;28;20617;-52
2024/01/12 06:39:17;;;;;;;88.80;36.33;;;1.60;99.90;;;;;;5052516;28;20170;-52
2024/01/12 06:41:43;;;;;;;89.65;35.25;;;1.60;99.90;;;;;;5052616;28;20167;-52
2024/01/12 06:44:09;;;;;;;73.78;31.65;;;1.60;99.90;;;;;;5052470;28;20173;-52
2024/01/12 06:46:35;;;;;;;79.25;32.92;;;1.60;99.90;;;;;;5052642;28;20182;-52
2024/01/12 06:49:00;;;;;;;96.38;33.17;;;1.60;99.90;;;;;;5051676;28;20171;-51
2024/01/12 06:51:26;;;;;;;85.80;32.67;;;1.60;99.90;;;;;;5052695;28;20182;-52
2024/01/12 06:53:52;;;;;;;70.15;31.45;;;1.60;99.90;;;;;;5052329;28;20538;-53
2024/01/12 06:56:21;;;;;;;77.85;31.40;;;1.50;99.90;;;;;;5050970;28;20666;-53
2024/01/12 06:58:47;;;;;;;85.57;32.92;;;1.60;99.90;;;;;;5052152;28;20681;-53
2024/01/12 07:01:12;;;;;;;73.53;33.00;;;1.60;99.90;;;;;;5052200;28;20194;-52
2024/01/12 07:03:38;;;;;;;87.82;33.72;;;1.60;99.90;;;;;;5052165;28;20258;-52
2024/01/12 07:06:04;;;;;;;73.78;31.33;;;1.60;99.90;;;;;;5052115;28;20171;-52
2024/01/12 07:08:29;;;;;;;86.47;31.45;;;1.60;99.90;;;;;;5052545;28;20163;-52
2024/01/12 07:10:55;;;;;;;80.28;33.35;;;1.60;99.90;;;;;;5052078;28;20654;-51
2024/01/12 07:13:20;;;;;;;80.82;33.40;;;1.60;99.90;;;;;;5051985;28;20213;-52
2024/01/12 07:15:46;;;;;;;82.28;32.85;;;1.60;99.90;;;;;;5051856;28;20178;-52
2024/01/12 07:18:11;;;;;;;70.40;31.13;;;1.50;99.90;;;;;;5051807;28;20677;-52
2024/01/12 07:20:37;;;;;;;80.13;32.80;;;1.50;99.90;;;;;;5051951;28;20201;-52
2024/01/12 07:23:03;;;;;;;81.15;32.67;;;1.50;99.90;;;;;;5051862;28;20163;-53
2024/01/12 07:25:29;;;;;;;88.28;33.60;;;1.40;99.90;;;;;;5052336;28;20193;-53
2024/01/12 07:27:55;;;;;;;83.50;33.17;;;1.50;99.90;;;;;;5051694;28;20191;-53
2024/01/12 07:30:20;;;;;;;85.00;33.92;;;1.50;99.90;;;;;;5051589;28;20205;-53
2024/01/12 07:32:46;;;;;;;72.57;30.17;;;1.50;99.90;;;;;;5051624;28;20175;-52
2024/01/12 07:35:12;;;;;;;81.50;32.17;;;1.50;99.90;;;;;;5051580;28;20178;-53
2024/01/12 07:37:37;;;;;;;78.63;30.73;;;1.50;99.90;;;;;;5051559;28;20320;-53
2024/01/12 07:40:03;;;;;;;85.18;32.00;;;1.60;99.90;;;;;;5051517;28;20180;-53
2024/01/12 07:42:29;;;;;;;73.22;31.02;;;1.60;99.90;;;;;;5051917;28;20171;-52
2024/01/12 07:44:55;;;;;;;77.28;31.13;;;1.60;99.90;;;;;;5051707;28;20573;-53
2024/01/12 07:47:20;;;;;;;78.50;30.25;;;1.70;99.90;;;;;;5051733;28;20248;-52
2024/01/12 07:49:46;;;;;;;77.65;30.88;;;1.60;99.90;;;;;;5051675;28;20498;-52
2024/01/12 07:52:11;;;;;;;72.53;31.30;;;1.60;99.90;;;;;;5051354;28;20171;-53
2024/01/12 07:54:37;;;;;;;73.07;33.83;;;1.70;99.90;;;;;;5051598;28;20250;-52
2024/01/12 07:57:03;;;;;;;73.97;30.90;;;1.70;99.90;;;;;;5051181;28;20723;-53
2024/01/12 07:59:28;;;;;;;77.55;31.20;;;1.70;99.90;;;;;;5051864;28;20167;-52
2024/01/12 08:01:55;;;;;;;77.57;31.92;;;1.70;99.90;;;;;;5051448;28;20285;-53
2024/01/12 08:04:21;;;;;;;79.72;30.55;;;1.80;99.90;;;;;;5051148;28;20194;-53
2024/01/12 08:06:47;;;;;;;78.90;33.13;;;1.70;99.90;;;;;;5051160;28;20630;-53
2024/01/12 08:09:13;;;;;;;76.40;31.45;;;1.80;99.90;;;;;;5051080;28;20169;-52
2024/01/12 08:11:39;;;;;;;81.25;31.55;;;1.80;99.90;;;;;;5051372;28;20261;-52
2024/01/12 08:14:05;;;;;;;86.03;32.92;;;1.70;99.90;;;;;;5051075;28;20194;-52
2024/01/12 08:16:31;;;;;;;75.68;31.52;;;1.70;99.90;;;;;;5051536;28;20236;-52
2024/01/12 08:18:56;;;;;;;91.07;33.03;;;1.70;99.90;;;;;;5051420;28;20209;-53
2024/01/12 08:21:22;;;;;;;88.18;34.45;;;1.70;99.90;;;;;;5049770;28;20170;-52
2024/01/12 08:23:48;;;;;;;82.05;32.17;;;1.60;99.90;;;;;;5050907;28;20626;-52
2024/01/12 08:26:13;;;;;;;73.78;31.55;;;1.70;99.90;;;;;;5049762;28;20619;-52
2024/01/12 08:28:39;;;;;;;91.18;33.45;;;1.70;99.90;;;;;;5050886;28;20201;-53
2024/01/12 08:31:05;;;;;;;88.93;31.80;;;1.80;99.90;;;;;;5054027;28;20174;-51
2024/01/12 08:33:31;;;;;;;83.65;32.03;;;1.80;99.90;;;;;;5055507;28;20573;-52
2024/01/12 08:35:56;;;;;;;82.38;30.83;;;1.80;99.90;;;;;;5054902;28;20657;-52
2024/01/12 08:38:22;;;;;;;90.35;31.73;;;1.70;99.90;;;;;;5054885;28;20241;-52
2024/01/12 08:40:48;;;;;;;76.63;30.20;;;1.70;99.90;;;;;;5054858;28;20159;-52
2024/01/12 08:43:14;;;;;;;85.75;32.40;;;1.70;99.90;;;;;;5054788;28;20316;-52
2024/01/12 08:45:40;;;;;;;79.47;30.23;;;1.70;99.90;;;;;;5055045;28;20170;-51
2024/01/12 08:48:06;;;;;;;76.85;31.65;;;1.70;99.90;;;;;;5053485;28;20173;-51
2024/01/12 08:50:33;;;;;;;72.72;29.13;;;1.70;99.90;;;;;;5055135;28;20657;-51
2024/01/12 08:52:59;;;;;;;82.88;29.67;;;1.70;99.90;;;;;;5055072;28;20260;-51
2024/01/12 08:55:24;;;;;;;68.10;29.92;;;1.80;99.90;;;;;;5054456;28;20245;-47
2024/01/12 08:57:52;;;;;;;80.82;31.40;;;1.80;99.90;;;;;;5054436;28;20209;-51
2024/01/12 09:00:17;;;;;;;97.05;37.83;;;1.90;99.90;;;;;;5054417;28;20649;-52
2024/01/12 09:02:43;;;;;;;91.90;37.40;;;1.80;99.90;;;;;;5053009;28;20253;-47
2024/01/12 09:05:09;;;;;;;83.53;35.50;;;1.90;99.90;;;;;;5052652;28;20167;-44
2024/01/12 09:07:34;;;;;;;65.68;29.98;;;1.90;99.90;;;;;;5052416;28;20200;-47
2024/01/12 09:10:01;;;;;;;43.80;22.95;;;1.90;99.90;;;;;;5052988;28;20212;-45
2024/01/12 09:12:26;;;;;;;49.78;24.60;;;1.80;99.90;;;;;;5052930;28;20181;-46
2024/01/12 09:14:52;;;;;;;52.03;24.00;;;1.80;99.90;;;;;;5052426;28;20257;-46
2024/01/12 09:17:18;;;;;;;47.30;21.60;;;1.80;99.90;;;;;;5051877;28;20198;-42
2024/01/12 09:19:43;;;;;;;45.70;22.30;;;1.90;99.90;;;;;;5052399;28;20674;-45
2024/01/12 09:22:10;;;;;;;54.00;25.13;;;1.30;99.90;;;;;;5052339;28;20175;-44
2024/01/12 09:24:36;;;;;;;48.40;23.15;;;1.90;99.90;;;;;;5052492;28;20175;-55
2024/01/12 09:27:01;;;;;;;47.03;22.50;;;1.90;99.90;;;;;;5052356;28;20535;-50
2024/01/12 09:29:27;;;;;;;44.58;21.98;;;1.90;99.90;;;;;;5052787;28;20540;-55
2024/01/12 09:31:52;;;;;;;43.90;20.40;;;1.90;99.90;;;;;;5051986;28;20178;-53
2024/01/12 09:34:18;;;;;;;55.70;25.17;;;1.90;99.90;;;;;;5052409;28;20171;-61
2024/01/12 09:36:43;;;;;;;49.00;23.35;;;2.00;99.90;;;;;;5051949;28;20620;-57
2024/01/12 09:39:14;;;;;;;33.38;18.13;;;1.90;99.90;;;;;;5052084;28;20167;-63
2024/01/12 09:41:45;;;;;;;36.25;18.27;;;1.90;99.90;;;;;;5050704;28;20170;-57
2024/01/12 09:44:13;;;;;;;27.45;14.65;;;1.90;99.90;;;;;;5051823;28;20667;-59
2024/01/12 09:46:56;;;;;;;27.05;13.70;;;1.50;99.90;;;;;;5051873;28;20292;-58
2024/01/12 09:49:23;;;;;;;25.73;13.63;;;1.90;99.90;;;;;;5052089;28;20659;-58
2024/01/12 09:51:49;;;;;;;28.67;15.02;;;1.90;99.90;;;;;;5052188;28;20183;-58
2024/01/12 09:54:15;;;;;;;38.47;18.67;;;1.90;99.90;;;;;;5051819;28;20205;-43
2024/01/12 09:56:42;;;;;;;32.20;18.20;;;2.00;99.90;;;;;;5051632;28;20237;-44
2024/01/12 09:59:08;;;;;;;27.65;15.80;;;2.00;99.90;;;;;;5052127;28;20579;-43
2024/01/12 10:01:34;;;;;;;44.80;20.95;;;2.00;99.90;;;;;;5051692;28;20538;-44
2024/01/12 10:03:59;;;;;;;38.55;18.42;;;2.00;99.90;;;;;;5051901;28;20170;-44
2024/01/12 10:06:25;;;;;;;35.75;17.60;;;2.00;99.90;;;;;;5051632;28;20645;-44
2024/01/12 10:08:51;;;;;;;38.17;19.50;;;2.10;99.90;;;;;;5051643;28;20163;-43
2024/01/12 10:11:17;;;;;;;36.47;16.83;;;2.10;99.90;;;;;;5051602;28;20507;-54
2024/01/12 10:13:43;;;;;;;37.42;17.67;;;2.00;99.90;;;;;;5051434;28;20173;-56
2024/01/12 10:16:08;;;;;;;38.85;18.85;;;2.00;99.90;;;;;;5051331;28;20531;-46
2024/01/12 10:18:34;;;;;;;39.30;18.98;;;2.00;99.90;;;;;;5051317;28;20207;-45
2024/01/12 10:21:00;;;;;;;38.50;18.25;;;2.10;99.90;;;;;;5051696;28;20523;-48
2024/01/12 10:23:28;;;;;;;49.70;19.48;;;2.10;99.90;;;;;;5051113;28;20341;-51
2024/01/12 10:26:00;;;;;;;40.58;19.15;;;2.10;99.90;;;;;;5050995;28;20171;-51
2024/01/12 10:28:32;;;;;;;42.28;20.02;;;2.10;99.90;;;;;;5051051;28;20174;-50
2024/01/12 10:31:09;;;;;;;39.25;19.50;;;2.10;99.90;;;;;;5051361;28;20175;-56
2024/01/12 10:33:35;;;;;;;39.60;19.23;;;2.20;99.90;;;;;;5051225;28;20236;-44
2024/01/12 10:36:21;;;;;;;32.30;17.45;;;2.10;99.90;;;;;;5051781;28;20213;-49
2024/01/12 10:38:49;;;;;;;37.55;16.63;;;2.10;99.90;;;;;;5050730;28;20218;-47
2024/01/12 10:41:19;;;;;;;35.53;17.88;;;2.10;99.90;;;;;;5050669;28;20863;-44
2024/01/12 10:43:50;;;;;;;38.15;17.80;;;2.10;99.90;;;;;;5050637;28;20269;-47
2024/01/12 10:46:47;;;;;;;41.78;20.55;;;2.10;99.90;;;;;;5050669;28;20218;-45
2024/01/12 10:49:20;;;;;;;32.22;15.30;;;2.10;99.90;;;;;;5049917;28;20274;-50
2024/01/12 10:52:12;;;;;;;39.20;15.38;;;2.10;99.90;;;;;;5049248;28;20179;-48
2024/01/12 10:54:48;;;;;;;23.25;11.63;;;2.10;99.90;;;;;;5050400;28;20528;-44
2024/01/12 10:57:15;;;;;;;31.88;13.90;;;1.90;99.90;;;;;;5050320;28;20226;-43
2024/01/12 10:59:41;;;;;;;29.02;15.20;;;1.90;99.90;;;;;;5050305;28;20171;-44
2024/01/12 11:02:11;;;;;;;32.13;15.18;;;2.00;99.90;;;;;;5050399;28;20205;-63
2024/01/12 11:04:37;;;;;;;22.92;12.77;;;2.00;99.90;;;;;;5050319;28;20630;-49
2024/01/12 11:07:04;;;;;;;29.80;15.23;;;2.10;99.90;;;;;;5050181;28;20183;-44
2024/01/12 11:09:29;;;;;;;31.52;15.73;;;2.10;99.90;;;;;;5051020;28;20602;-43
2024/01/12 11:12:08;;;;;;;35.50;14.75;;;2.20;99.90;;;;;;5050170;28;20270;-44
2024/01/12 11:14:38;;;;;;;31.95;15.20;;;2.20;99.90;;;;;;5050106;28;20700;-44
2024/01/12 11:17:07;;;;;;;26.52;14.27;;;2.20;99.90;;;;;;5050012;28;20207;-49
2024/01/12 11:19:34;;;;;;;29.98;16.08;;;2.20;99.90;;;;;;5049981;28;20225;-47
2024/01/12 11:22:10;;;;;;;30.38;15.10;;;2.20;99.90;;;;;;5050333;28;20237;-44
2024/01/12 11:24:37;;;;;;;30.70;14.98;;;2.20;99.90;;;;;;5049887;28;20584;-47
2024/01/12 11:27:04;;;;;;;42.15;20.23;;;2.20;99.90;;;;;;5048748;28;20178;-50
2024/01/12 11:29:31;;;;;;;30.00;15.55;;;2.20;99.90;;;;;;5050555;28;20178;-48
2024/01/12 11:32:02;;;;;;;34.40;16.02;;;2.20;99.90;;;;;;5050599;28;20174;-48
2024/01/12 11:34:37;;;;;;;33.08;15.73;;;2.20;99.90;;;;;;5050369;28;20615;-52
2024/01/12 11:37:03;;;;;;;36.25;17.85;;;2.20;99.90;;;;;;5049893;28;20292;-44
2024/01/12 11:39:33;;;;;;;36.53;17.48;;;2.20;99.90;;;;;;5050750;28;20591;-44
2024/01/12 11:42:00;;;;;;;37.92;17.58;;;2.20;99.90;;;;;;5050577;28;20239;-46
2024/01/12 11:44:26;;;;;;;37.35;16.20;;;2.30;99.90;;;;;;5049573;28;20175;-44
2024/01/12 11:46:52;;;;;;;36.08;17.88;;;2.20;99.90;;;;;;5049599;28;20498;-47
2024/01/12 11:49:18;;;;;;;36.53;16.70;;;2.30;99.90;;;;;;5049609;28;20197;-44
2024/01/12 11:51:43;;;;;;;32.53;16.23;;;2.20;99.90;;;;;;5049689;28;20200;-49
2024/01/12 11:54:10;;;;;;;36.97;17.25;;;2.20;99.90;;;;;;5049710;28;20634;-51
2024/01/12 11:56:35;;;;;;;38.20;17.40;;;2.30;99.90;;;;;;5049497;28;20297;-44
2024/01/12 11:59:01;;;;;;;36.65;18.10;;;2.20;99.90;;;;;;5049998;28;20297;-49
2024/01/12 12:01:27;;;;;;;35.25;16.73;;;4.20;99.90;;;;;;5048572;28;20636;-47
2024/01/12 12:03:53;;;;;;;36.35;18.10;;;2.30;99.90;;;;;;5049319;28;20170;-46
2024/01/12 12:06:19;;;;;;;29.45;16.00;;;2.30;99.90;;;;;;5048930;28;20529;-53
2024/01/12 12:08:44;;;;;;;30.17;16.23;;;2.30;99.90;;;;;;5049295;28;20181;-48
2024/01/12 12:11:13;;;;;;;29.67;14.45;;;2.40;99.90;;;;;;5049493;28;20615;-51
2024/01/12 12:13:38;;;;;;;31.67;15.38;;;2.50;99.90;;;;;;5049480;28;20194;-49
2024/01/12 12:16:04;;;;;;;27.63;13.95;;;2.40;99.90;;;;;;5049224;28;20646;-46
2024/01/12 12:18:30;;;;;;;35.03;16.27;;;2.50;99.90;;;;;;5049703;28;20213;-47
2024/01/12 12:20:57;;;;;;;29.48;13.73;;;2.50;99.90;;;;;;5049737;28;20570;-45
2024/01/12 12:23:23;;;;;;;24.02;12.52;;;2.50;99.90;;;;;;5049446;28;20580;-45
2024/01/12 12:25:49;;;;;;;25.25;13.00;;;2.50;99.90;;;;;;5049179;28;20170;-51
2024/01/12 12:28:15;;;;;;;29.65;14.10;;;2.50;99.90;;;;;;5049135;28;20171;-45
2024/01/12 12:30:41;;;;;;;34.63;14.15;;;2.50;99.90;;;;;;5047932;28;20174;-45